Terminal Aerodrome Forecast
Issued by NWS Grand Forks, ND

Home | Current Version | Previous Version | Graphics & Text | Print | Product List | Glossary On
Versions: 1 2 3 4 5 6 7 8 9 10 11 12 13 14 15 16 17
000
FTUS43 KFGF 271700
TAFGFK
TAF
KGFK 271737Z 2718/2818 29007KT P6SM BKN250
     FM272100 27006KT P6SM OVC100
     FM280200 28006KT P6SM OVC050
     FM280600 31008KT P6SM OVC025
     FM281100 32014KT P6SM VCSH OVC015
     FM281400 32017G24KT P6SM VCSH OVC025=

USA.gov is the U.S. government's official web portal to all federal, state and local government web resources and services.